sensor_id;sensor_type;location;lat;lon;timestamp;P1;durP1;ratioP1;P2;durP2;ratioP2
66384;SDS011;53426;55.872;37.462;2023-04-08T00:01:49;8.63;;;3.30;;
66384;SDS011;53426;55.872;37.462;2023-04-08T00:04:16;11.40;;;4.00;;
66384;SDS011;53426;55.872;37.462;2023-04-08T00:06:42;13.75;;;3.28;;
66384;SDS011;53426;55.872;37.462;2023-04-08T00:09:07;6.50;;;3.50;;
66384;SDS011;53426;55.872;37.462;2023-04-08T00:11:33;5.10;;;3.72;;
66384;SDS011;53426;55.872;37.462;2023-04-08T00:14:01;16.67;;;3.55;;
66384;SDS011;53426;55.872;37.462;2023-04-08T00:16:28;14.77;;;3.70;;
66384;SDS011;53426;55.872;37.462;2023-04-08T00:18:55;4.72;;;3.33;;
66384;SDS011;53426;55.872;37.462;2023-04-08T00:21:24;7.68;;;3.65;;
66384;SDS011;53426;55.872;37.462;2023-04-08T00:23:51;16.38;;;3.63;;
66384;SDS011;53426;55.872;37.462;2023-04-08T00:26:18;10.20;;;3.95;;
66384;SDS011;53426;55.872;37.462;2023-04-08T00:28:45;7.72;;;3.72;;
66384;SDS011;53426;55.872;37.462;2023-04-08T00:31:11;13.50;;;3.72;;
66384;SDS011;53426;55.872;37.462;2023-04-08T00:33:37;5.10;;;3.35;;
66384;SDS011;53426;55.872;37.462;2023-04-08T00:36:02;5.25;;;3.30;;
66384;SDS011;53426;55.872;37.462;2023-04-08T00:38:28;7.15;;;3.55;;
66384;SDS011;53426;55.872;37.462;2023-04-08T00:40:56;12.27;;;3.28;;
66384;SDS011;53426;55.872;37.462;2023-04-08T00:43:22;3.28;;;2.38;;
66384;SDS011;53426;55.872;37.462;2023-04-08T00:45:48;5.75;;;3.67;;
66384;SDS011;53426;55.872;37.462;2023-04-08T00:48:15;9.27;;;3.35;;
66384;SDS011;53426;55.872;37.462;2023-04-08T00:50:42;5.60;;;3.40;;
66384;SDS011;53426;55.872;37.462;2023-04-08T00:53:08;7.93;;;3.78;;
66384;SDS011;53426;55.872;37.462;2023-04-08T00:55:35;5.32;;;3.47;;
66384;SDS011;53426;55.872;37.462;2023-04-08T00:58:01;7.50;;;3.63;;
66384;SDS011;53426;55.872;37.462;2023-04-08T01:00:28;4.25;;;3.08;;
66384;SDS011;53426;55.872;37.462;2023-04-08T01:03:01;10.00;;;3.97;;
66384;SDS011;53426;55.872;37.462;2023-04-08T01:08:14;10.60;;;4.00;;
66384;SDS011;53426;55.872;37.462;2023-04-08T01:10:42;7.43;;;3.88;;
66384;SDS011;53426;55.872;37.462;2023-04-08T01:13:13;8.90;;;3.83;;
66384;SDS011;53426;55.872;37.462;2023-04-08T01:15:43;7.97;;;3.78;;
66384;SDS011;53426;55.872;37.462;2023-04-08T01:18:12;10.98;;;4.18;;
66384;SDS011;53426;55.872;37.462;2023-04-08T01:20:39;10.35;;;3.85;;
66384;SDS011;53426;55.872;37.462;2023-04-08T01:23:31;18.90;;;4.82;;
66384;SDS011;53426;55.872;37.462;2023-04-08T01:26:20;8.32;;;3.80;;
66384;SDS011;53426;55.872;37.462;2023-04-08T01:28:54;8.73;;;4.15;;
66384;SDS011;53426;55.872;37.462;2023-04-08T01:31:23;10.20;;;4.30;;
66384;SDS011;53426;55.872;37.462;2023-04-08T01:33:50;12.07;;;4.45;;
66384;SDS011;53426;55.872;37.462;2023-04-08T01:36:17;6.47;;;3.85;;
66384;SDS011;53426;55.872;37.462;2023-04-08T01:38:46;10.10;;;4.38;;
66384;SDS011;53426;55.872;37.462;2023-04-08T01:41:14;11.80;;;4.20;;
66384;SDS011;53426;55.872;37.462;2023-04-08T01:43:41;14.32;;;4.20;;
66384;SDS011;53426;55.872;37.462;2023-04-08T01:46:09;8.07;;;3.85;;
66384;SDS011;53426;55.872;37.462;2023-04-08T01:48:37;5.22;;;3.83;;
66384;SDS011;53426;55.872;37.462;2023-04-08T01:51:04;11.18;;;4.15;;
66384;SDS011;53426;55.872;37.462;2023-04-08T01:53:31;11.85;;;4.90;;
66384;SDS011;53426;55.872;37.462;2023-04-08T01:56:03;16.20;;;4.65;;
66384;SDS011;53426;55.872;37.462;2023-04-08T01:58:36;11.45;;;4.30;;
66384;SDS011;53426;55.872;37.462;2023-04-08T02:01:05;9.02;;;4.68;;
66384;SDS011;53426;55.872;37.462;2023-04-08T02:03:36;15.75;;;4.32;;
66384;SDS011;53426;55.872;37.462;2023-04-08T02:06:02;8.23;;;4.55;;
66384;SDS011;53426;55.872;37.462;2023-04-08T02:08:28;13.13;;;4.38;;
66384;SDS011;53426;55.872;37.462;2023-04-08T02:10:54;15.93;;;4.63;;
66384;SDS011;53426;55.872;37.462;2023-04-08T02:13:19;12.02;;;4.28;;
66384;SDS011;53426;55.872;37.462;2023-04-08T02:15:47;19.30;;;4.95;;
66384;SDS011;53426;55.872;37.462;2023-04-08T02:18:21;18.63;;;4.80;;
66384;SDS011;53426;55.872;37.462;2023-04-08T02:20:53;15.40;;;4.90;;
66384;SDS011;53426;55.872;37.462;2023-04-08T02:23:26;13.65;;;4.40;;
66384;SDS011;53426;55.872;37.462;2023-04-08T02:25:54;7.95;;;4.20;;
66384;SDS011;53426;55.872;37.462;2023-04-08T02:28:25;8.57;;;4.82;;
66384;SDS011;53426;55.872;37.462;2023-04-08T02:30:53;5.35;;;4.25;;
66384;SDS011;53426;55.872;37.462;2023-04-08T02:33:22;13.60;;;5.25;;
66384;SDS011;53426;55.872;37.462;2023-04-08T02:35:51;9.18;;;4.57;;
66384;SDS011;53426;55.872;37.462;2023-04-08T02:38:19;7.50;;;4.57;;
66384;SDS011;53426;55.872;37.462;2023-04-08T02:40:47;10.27;;;4.80;;
66384;SDS011;53426;55.872;37.462;2023-04-08T02:43:14;15.77;;;4.85;;
66384;SDS011;53426;55.872;37.462;2023-04-08T02:45:41;16.73;;;4.50;;
66384;SDS011;53426;55.872;37.462;2023-04-08T02:48:09;8.73;;;4.40;;
66384;SDS011;53426;55.872;37.462;2023-04-08T02:50:35;7.35;;;4.25;;
66384;SDS011;53426;55.872;37.462;2023-04-08T02:53:02;25.02;;;4.75;;
66384;SDS011;53426;55.872;37.462;2023-04-08T02:55:32;15.30;;;4.75;;
66384;SDS011;53426;55.872;37.462;2023-04-08T02:58:01;9.35;;;4.90;;
66384;SDS011;53426;55.872;37.462;2023-04-08T03:00:27;11.80;;;4.95;;
66384;SDS011;53426;55.872;37.462;2023-04-08T03:02:52;12.73;;;5.30;;
66384;SDS011;53426;55.872;37.462;2023-04-08T03:05:18;10.90;;;4.32;;
66384;SDS011;53426;55.872;37.462;2023-04-08T03:07:44;13.07;;;4.68;;
66384;SDS011;53426;55.872;37.462;2023-04-08T03:10:10;16.02;;;4.63;;
66384;SDS011;53426;55.872;37.462;2023-04-08T03:12:37;10.32;;;4.47;;
66384;SDS011;53426;55.872;37.462;2023-04-08T03:15:03;8.73;;;4.15;;
66384;SDS011;53426;55.872;37.462;2023-04-08T03:17:30;5.95;;;3.80;;
66384;SDS011;53426;55.872;37.462;2023-04-08T03:19:59;10.65;;;4.60;;
66384;SDS011;53426;55.872;37.462;2023-04-08T03:22:31;8.95;;;4.63;;
66384;SDS011;53426;55.872;37.462;2023-04-08T03:24:58;13.98;;;4.32;;
66384;SDS011;53426;55.872;37.462;2023-04-08T03:27:25;11.23;;;4.95;;
66384;SDS011;53426;55.872;37.462;2023-04-08T03:29:50;13.90;;;4.57;;
66384;SDS011;53426;55.872;37.462;2023-04-08T03:32:17;13.15;;;5.28;;
66384;SDS011;53426;55.872;37.462;2023-04-08T03:34:43;30.77;;;6.68;;
66384;SDS011;53426;55.872;37.462;2023-04-08T03:37:09;11.80;;;4.72;;
66384;SDS011;53426;55.872;37.462;2023-04-08T03:39:35;11.45;;;5.10;;
66384;SDS011;53426;55.872;37.462;2023-04-08T03:42:01;10.45;;;5.63;;
66384;SDS011;53426;55.872;37.462;2023-04-08T03:44:27;19.00;;;5.53;;
66384;SDS011;53426;55.872;37.462;2023-04-08T03:46:53;26.10;;;5.03;;
66384;SDS011;53426;55.872;37.462;2023-04-08T03:49:19;20.90;;;5.28;;
66384;SDS011;53426;55.872;37.462;2023-04-08T03:51:45;20.77;;;5.38;;
66384;SDS011;53426;55.872;37.462;2023-04-08T03:54:12;11.27;;;5.00;;
66384;SDS011;53426;55.872;37.462;2023-04-08T03:56:38;23.88;;;5.57;;
66384;SDS011;53426;55.872;37.462;2023-04-08T03:59:04;17.00;;;5.80;;
66384;SDS011;53426;55.872;37.462;2023-04-08T04:01:30;9.32;;;5.10;;
66384;SDS011;53426;55.872;37.462;2023-04-08T04:03:56;8.80;;;5.28;;
66384;SDS011;53426;55.872;37.462;2023-04-08T04:06:22;10.52;;;5.05;;
66384;SDS011;53426;55.872;37.462;2023-04-08T04:08:48;18.67;;;5.50;;
66384;SDS011;53426;55.872;37.462;2023-04-08T04:11:14;11.23;;;5.28;;
66384;SDS011;53426;55.872;37.462;2023-04-08T04:13:41;9.20;;;5.53;;
66384;SDS011;53426;55.872;37.462;2023-04-08T04:16:06;17.48;;;5.05;;
66384;SDS011;53426;55.872;37.462;2023-04-08T04:18:32;19.08;;;5.53;;
66384;SDS011;53426;55.872;37.462;2023-04-08T04:20:58;11.05;;;5.20;;
66384;SDS011;53426;55.872;37.462;2023-04-08T04:23:24;14.88;;;5.35;;
66384;SDS011;53426;55.872;37.462;2023-04-08T04:25:50;12.80;;;5.60;;
66384;SDS011;53426;55.872;37.462;2023-04-08T04:28:16;11.65;;;5.45;;
66384;SDS011;53426;55.872;37.462;2023-04-08T04:30:42;9.10;;;5.38;;
66384;SDS011;53426;55.872;37.462;2023-04-08T04:33:07;8.85;;;5.13;;
66384;SDS011;53426;55.872;37.462;2023-04-08T04:35:33;10.30;;;5.25;;
66384;SDS011;53426;55.872;37.462;2023-04-08T04:37:59;12.02;;;5.47;;
66384;SDS011;53426;55.872;37.462;2023-04-08T04:40:25;7.82;;;4.88;;
66384;SDS011;53426;55.872;37.462;2023-04-08T04:42:51;11.90;;;5.45;;
66384;SDS011;53426;55.872;37.462;2023-04-08T04:45:17;11.98;;;5.30;;
66384;SDS011;53426;55.872;37.462;2023-04-08T04:47:43;14.88;;;5.80;;
66384;SDS011;53426;55.872;37.462;2023-04-08T04:50:09;15.85;;;5.40;;
66384;SDS011;53426;55.872;37.462;2023-04-08T04:52:35;8.27;;;5.38;;
66384;SDS011;53426;55.872;37.462;2023-04-08T04:55:01;17.95;;;5.38;;
66384;SDS011;53426;55.872;37.462;2023-04-08T04:57:28;23.73;;;6.30;;
66384;SDS011;53426;55.872;37.462;2023-04-08T04:59:54;12.82;;;5.22;;
66384;SDS011;53426;55.872;37.462;2023-04-08T05:05:08;13.85;;;5.03;;
66384;SDS011;53426;55.872;37.462;2023-04-08T05:07:37;10.95;;;5.55;;
66384;SDS011;53426;55.872;37.462;2023-04-08T05:10:04;6.72;;;5.03;;
66384;SDS011;53426;55.872;37.462;2023-04-08T05:12:31;17.23;;;5.35;;
66384;SDS011;53426;55.872;37.462;2023-04-08T05:14:58;9.25;;;5.03;;
66384;SDS011;53426;55.872;37.462;2023-04-08T05:17:24;10.38;;;4.88;;
66384;SDS011;53426;55.872;37.462;2023-04-08T05:19:50;8.50;;;4.97;;
66384;SDS011;53426;55.872;37.462;2023-04-08T05:22:20;13.88;;;5.20;;
66384;SDS011;53426;55.872;37.462;2023-04-08T05:24:47;9.75;;;4.80;;
66384;SDS011;53426;55.872;37.462;2023-04-08T05:27:14;21.55;;;5.03;;
66384;SDS011;53426;55.872;37.462;2023-04-08T05:29:42;16.63;;;5.65;;
66384;SDS011;53426;55.872;37.462;2023-04-08T05:32:08;11.60;;;5.30;;
66384;SDS011;53426;55.872;37.462;2023-04-08T05:34:36;12.38;;;4.95;;
66384;SDS011;53426;55.872;37.462;2023-04-08T05:37:03;14.95;;;5.68;;
66384;SDS011;53426;55.872;37.462;2023-04-08T05:39:30;16.27;;;5.60;;
66384;SDS011;53426;55.872;37.462;2023-04-08T05:41:56;15.98;;;5.60;;
66384;SDS011;53426;55.872;37.462;2023-04-08T05:44:21;11.35;;;5.38;;
66384;SDS011;53426;55.872;37.462;2023-04-08T05:46:47;15.23;;;6.03;;
66384;SDS011;53426;55.872;37.462;2023-04-08T05:49:13;11.68;;;5.80;;
66384;SDS011;53426;55.872;37.462;2023-04-08T05:51:39;15.90;;;5.40;;
66384;SDS011;53426;55.872;37.462;2023-04-08T05:54:06;10.50;;;5.75;;
66384;SDS011;53426;55.872;37.462;2023-04-08T05:56:39;9.55;;;5.72;;
66384;SDS011;53426;55.872;37.462;2023-04-08T05:59:07;13.88;;;5.93;;
66384;SDS011;53426;55.872;37.462;2023-04-08T06:01:32;13.40;;;5.75;;
66384;SDS011;53426;55.872;37.462;2023-04-08T06:03:58;23.33;;;6.07;;
66384;SDS011;53426;55.872;37.462;2023-04-08T06:06:25;13.57;;;5.38;;
66384;SDS011;53426;55.872;37.462;2023-04-08T06:08:55;12.35;;;5.80;;
66384;SDS011;53426;55.872;37.462;2023-04-08T06:11:21;14.70;;;6.38;;
66384;SDS011;53426;55.872;37.462;2023-04-08T06:13:49;19.50;;;5.78;;
66384;SDS011;53426;55.872;37.462;2023-04-08T06:16:17;14.25;;;5.63;;
66384;SDS011;53426;55.872;37.462;2023-04-08T06:18:43;19.15;;;5.88;;
66384;SDS011;53426;55.872;37.462;2023-04-08T06:21:09;11.93;;;6.07;;
66384;SDS011;53426;55.872;37.462;2023-04-08T06:23:35;18.13;;;6.28;;
66384;SDS011;53426;55.872;37.462;2023-04-08T06:26:03;19.83;;;6.75;;
66384;SDS011;53426;55.872;37.462;2023-04-08T06:28:29;18.45;;;6.85;;
66384;SDS011;53426;55.872;37.462;2023-04-08T06:30:55;17.13;;;6.65;;
66384;SDS011;53426;55.872;37.462;2023-04-08T06:33:21;23.02;;;6.35;;
66384;SDS011;53426;55.872;37.462;2023-04-08T06:35:50;17.63;;;6.40;;
66384;SDS011;53426;55.872;37.462;2023-04-08T06:38:16;15.70;;;6.30;;
66384;SDS011;53426;55.872;37.462;2023-04-08T06:40:42;23.55;;;6.50;;
66384;SDS011;53426;55.872;37.462;2023-04-08T06:43:07;18.60;;;5.70;;
66384;SDS011;53426;55.872;37.462;2023-04-08T06:45:37;16.33;;;6.40;;
66384;SDS011;53426;55.872;37.462;2023-04-08T06:48:03;14.38;;;6.03;;
66384;SDS011;53426;55.872;37.462;2023-04-08T06:50:31;16.75;;;5.53;;
66384;SDS011;53426;55.872;37.462;2023-04-08T07:00:16;17.08;;;5.70;;
66384;SDS011;53426;55.872;37.462;2023-04-08T07:02:42;19.13;;;6.00;;
66384;SDS011;53426;55.872;37.462;2023-04-08T07:05:16;18.67;;;5.90;;
66384;SDS011;53426;55.872;37.462;2023-04-08T07:07:42;13.55;;;5.63;;
66384;SDS011;53426;55.872;37.462;2023-04-08T07:10:08;22.08;;;6.10;;
66384;SDS011;53426;55.872;37.462;2023-04-08T07:12:34;18.80;;;5.63;;
66384;SDS011;53426;55.872;37.462;2023-04-08T07:15:00;16.75;;;5.78;;
66384;SDS011;53426;55.872;37.462;2023-04-08T07:17:26;16.83;;;5.93;;
66384;SDS011;53426;55.872;37.462;2023-04-08T07:19:52;16.85;;;5.32;;
66384;SDS011;53426;55.872;37.462;2023-04-08T07:22:19;18.00;;;5.90;;
66384;SDS011;53426;55.872;37.462;2023-04-08T07:24:45;16.85;;;5.53;;
66384;SDS011;53426;55.872;37.462;2023-04-08T07:27:14;16.15;;;5.60;;
66384;SDS011;53426;55.872;37.462;2023-04-08T07:29:41;23.38;;;5.45;;
66384;SDS011;53426;55.872;37.462;2023-04-08T07:32:06;10.18;;;5.07;;
66384;SDS011;53426;55.872;37.462;2023-04-08T07:34:35;13.43;;;4.90;;
66384;SDS011;53426;55.872;37.462;2023-04-08T07:37:01;16.50;;;5.05;;
66384;SDS011;53426;55.872;37.462;2023-04-08T07:39:27;10.20;;;4.82;;
66384;SDS011;53426;55.872;37.462;2023-04-08T07:41:59;16.00;;;5.75;;
66384;SDS011;53426;55.872;37.462;2023-04-08T07:44:25;17.83;;;5.50;;
66384;SDS011;53426;55.872;37.462;2023-04-08T07:46:50;18.63;;;5.50;;
66384;SDS011;53426;55.872;37.462;2023-04-08T07:49:16;15.68;;;5.38;;
66384;SDS011;53426;55.872;37.462;2023-04-08T07:51:42;13.73;;;5.20;;
66384;SDS011;53426;55.872;37.462;2023-04-08T07:54:08;14.98;;;4.95;;
66384;SDS011;53426;55.872;37.462;2023-04-08T07:56:36;7.00;;;4.15;;
66384;SDS011;53426;55.872;37.462;2023-04-08T07:59:05;14.18;;;4.43;;
66384;SDS011;53426;55.872;37.462;2023-04-08T08:01:31;11.85;;;4.57;;
66384;SDS011;53426;55.872;37.462;2023-04-08T08:03:59;10.50;;;4.53;;
66384;SDS011;53426;55.872;37.462;2023-04-08T08:06:26;10.55;;;4.63;;
66384;SDS011;53426;55.872;37.462;2023-04-08T08:08:52;12.73;;;4.18;;
66384;SDS011;53426;55.872;37.462;2023-04-08T08:11:18;10.95;;;5.00;;
66384;SDS011;53426;55.872;37.462;2023-04-08T08:13:43;10.02;;;4.90;;
66384;SDS011;53426;55.872;37.462;2023-04-08T08:16:09;15.45;;;5.15;;
66384;SDS011;53426;55.872;37.462;2023-04-08T08:18:36;9.02;;;4.40;;
66384;SDS011;53426;55.872;37.462;2023-04-08T08:21:03;17.05;;;4.78;;
66384;SDS011;53426;55.872;37.462;2023-04-08T08:23:28;11.55;;;4.90;;
66384;SDS011;53426;55.872;37.462;2023-04-08T08:28:27;8.55;;;4.70;;
66384;SDS011;53426;55.872;37.462;2023-04-08T08:30:53;10.43;;;4.43;;
66384;SDS011;53426;55.872;37.462;2023-04-08T08:33:19;10.07;;;4.50;;
66384;SDS011;53426;55.872;37.462;2023-04-08T08:38:36;12.93;;;4.43;;
66384;SDS011;53426;55.872;37.462;2023-04-08T08:41:04;5.28;;;3.75;;
66384;SDS011;53426;55.872;37.462;2023-04-08T08:43:30;6.28;;;3.50;;
66384;SDS011;53426;55.872;37.462;2023-04-08T08:46:00;8.68;;;3.53;;
66384;SDS011;53426;55.872;37.462;2023-04-08T08:48:26;10.77;;;3.88;;
66384;SDS011;53426;55.872;37.462;2023-04-08T08:50:52;6.80;;;3.47;;
66384;SDS011;53426;55.872;37.462;2023-04-08T08:53:18;6.68;;;3.50;;
66384;SDS011;53426;55.872;37.462;2023-04-08T08:55:45;5.70;;;3.50;;
66384;SDS011;53426;55.872;37.462;2023-04-08T08:58:11;7.32;;;3.58;;
66384;SDS011;53426;55.872;37.462;2023-04-08T09:01:34;14.30;;;3.80;;
66384;SDS011;53426;55.872;37.462;2023-04-08T09:22:36;16.17;;;4.60;;
66384;SDS011;53426;55.872;37.462;2023-04-08T09:25:28;9.00;;;3.72;;
66384;SDS011;53426;55.872;37.462;2023-04-08T09:27:57;17.27;;;4.05;;
66384;SDS011;53426;55.872;37.462;2023-04-08T09:30:24;6.55;;;3.60;;
66384;SDS011;53426;55.872;37.462;2023-04-08T09:32:56;7.30;;;3.50;;
66384;SDS011;53426;55.872;37.462;2023-04-08T09:35:23;12.80;;;4.20;;
66384;SDS011;53426;55.872;37.462;2023-04-08T09:37:59;6.20;;;3.85;;
66384;SDS011;53426;55.872;37.462;2023-04-08T09:40:27;12.90;;;3.80;;
66384;SDS011;53426;55.872;37.462;2023-04-08T09:43:58;10.25;;;4.07;;
66384;SDS011;53426;55.872;37.462;2023-04-08T09:55:59;16.33;;;4.38;;
66384;SDS011;53426;55.872;37.462;2023-04-08T09:58:29;8.10;;;4.13;;
66384;SDS011;53426;55.872;37.462;2023-04-08T10:06:56;6.53;;;3.70;;
66384;SDS011;53426;55.872;37.462;2023-04-08T10:09:26;8.25;;;3.90;;
66384;SDS011;53426;55.872;37.462;2023-04-08T10:11:57;8.38;;;3.70;;
66384;SDS011;53426;55.872;37.462;2023-04-08T10:14:29;9.70;;;4.03;;
66384;SDS011;53426;55.872;37.462;2023-04-08T10:19:53;12.70;;;3.70;;
66384;SDS011;53426;55.872;37.462;2023-04-08T10:27:43;9.77;;;4.30;;
66384;SDS011;53426;55.872;37.462;2023-04-08T10:32:58;9.82;;;4.90;;
66384;SDS011;53426;55.872;37.462;2023-04-08T10:35:35;13.88;;;5.20;;
66384;SDS011;53426;55.872;37.462;2023-04-08T10:38:24;10.63;;;4.22;;
66384;SDS011;53426;55.872;37.462;2023-04-08T10:40:50;5.43;;;4.95;;
66384;SDS011;53426;55.872;37.462;2023-04-08T10:43:16;8.52;;;4.80;;
66384;SDS011;53426;55.872;37.462;2023-04-08T10:45:46;12.68;;;5.47;;
66384;SDS011;53426;55.872;37.462;2023-04-08T10:48:39;13.43;;;5.10;;
66384;SDS011;53426;55.872;37.462;2023-04-08T10:51:08;21.92;;;6.30;;
66384;SDS011;53426;55.872;37.462;2023-04-08T10:53:36;9.43;;;5.55;;
66384;SDS011;53426;55.872;37.462;2023-04-08T11:01:24;7.10;;;5.50;;
66384;SDS011;53426;55.872;37.462;2023-04-08T11:03:51;9.30;;;5.10;;
66384;SDS011;53426;55.872;37.462;2023-04-08T11:06:17;13.73;;;6.60;;
66384;SDS011;53426;55.872;37.462;2023-04-08T11:08:43;10.38;;;6.03;;
66384;SDS011;53426;55.872;37.462;2023-04-08T11:11:10;9.77;;;5.53;;
66384;SDS011;53426;55.872;37.462;2023-04-08T11:16:40;15.73;;;6.03;;
66384;SDS011;53426;55.872;37.462;2023-04-08T11:19:07;16.48;;;6.38;;
66384;SDS011;53426;55.872;37.462;2023-04-08T11:21:34;17.60;;;6.72;;
66384;SDS011;53426;55.872;37.462;2023-04-08T11:24:04;13.68;;;6.57;;
66384;SDS011;53426;55.872;37.462;2023-04-08T11:26:32;14.25;;;6.05;;
66384;SDS011;53426;55.872;37.462;2023-04-08T11:29:02;14.30;;;6.68;;
66384;SDS011;53426;55.872;37.462;2023-04-08T11:31:38;11.57;;;5.65;;
66384;SDS011;53426;55.872;37.462;2023-04-08T11:34:08;9.43;;;5.97;;
66384;SDS011;53426;55.872;37.462;2023-04-08T11:39:25;16.52;;;6.22;;
66384;SDS011;53426;55.872;37.462;2023-04-08T11:44:50;13.88;;;6.03;;
66384;SDS011;53426;55.872;37.462;2023-04-08T11:47:16;19.50;;;6.57;;
66384;SDS011;53426;55.872;37.462;2023-04-08T11:49:43;16.85;;;6.82;;
66384;SDS011;53426;55.872;37.462;2023-04-08T11:52:10;10.40;;;6.43;;
66384;SDS011;53426;55.872;37.462;2023-04-08T11:54:40;9.85;;;6.00;;
66384;SDS011;53426;55.872;37.462;2023-04-08T11:57:46;13.10;;;7.68;;
66384;SDS011;53426;55.872;37.462;2023-04-08T12:01:27;11.45;;;6.55;;
66384;SDS011;53426;55.872;37.462;2023-04-08T12:03:54;9.70;;;5.80;;
66384;SDS011;53426;55.872;37.462;2023-04-08T12:06:21;13.70;;;6.35;;
66384;SDS011;53426;55.872;37.462;2023-04-08T12:08:54;9.80;;;5.75;;
66384;SDS011;53426;55.872;37.462;2023-04-08T12:11:20;11.23;;;6.28;;
66384;SDS011;53426;55.872;37.462;2023-04-08T12:13:47;20.45;;;7.28;;
66384;SDS011;53426;55.872;37.462;2023-04-08T12:16:15;13.27;;;6.30;;
66384;SDS011;53426;55.872;37.462;2023-04-08T12:18:47;9.68;;;6.57;;
66384;SDS011;53426;55.872;37.462;2023-04-08T12:21:16;20.45;;;7.88;;
66384;SDS011;53426;55.872;37.462;2023-04-08T12:23:42;12.68;;;6.30;;
66384;SDS011;53426;55.872;37.462;2023-04-08T12:26:11;14.27;;;6.07;;
66384;SDS011;53426;55.872;37.462;2023-04-08T12:28:37;14.88;;;6.03;;
66384;SDS011;53426;55.872;37.462;2023-04-08T12:31:05;17.00;;;5.97;;
66384;SDS011;53426;55.872;37.462;2023-04-08T12:33:31;8.23;;;6.05;;
66384;SDS011;53426;55.872;37.462;2023-04-08T12:35:57;10.50;;;6.15;;
66384;SDS011;53426;55.872;37.462;2023-04-08T12:38:27;8.43;;;5.80;;
66384;SDS011;53426;55.872;37.462;2023-04-08T12:40:56;18.38;;;5.85;;
66384;SDS011;53426;55.872;37.462;2023-04-08T12:43:21;11.20;;;5.63;;
66384;SDS011;53426;55.872;37.462;2023-04-08T12:45:49;14.50;;;6.47;;
66384;SDS011;53426;55.872;37.462;2023-04-08T12:48:15;16.65;;;6.65;;
66384;SDS011;53426;55.872;37.462;2023-04-08T12:50:41;9.10;;;5.75;;
66384;SDS011;53426;55.872;37.462;2023-04-08T12:53:07;14.90;;;6.20;;
66384;SDS011;53426;55.872;37.462;2023-04-08T12:55:34;17.92;;;8.98;;
66384;SDS011;53426;55.872;37.462;2023-04-08T12:58:03;10.80;;;6.30;;
66384;SDS011;53426;55.872;37.462;2023-04-08T13:00:30;14.02;;;6.80;;
66384;SDS011;53426;55.872;37.462;2023-04-08T13:02:56;9.98;;;6.13;;
66384;SDS011;53426;55.872;37.462;2023-04-08T13:05:22;15.13;;;6.65;;
66384;SDS011;53426;55.872;37.462;2023-04-08T13:07:48;15.98;;;6.13;;
66384;SDS011;53426;55.872;37.462;2023-04-08T13:10:13;13.32;;;6.05;;
66384;SDS011;53426;55.872;37.462;2023-04-08T13:12:39;15.38;;;6.55;;
66384;SDS011;53426;55.872;37.462;2023-04-08T13:15:05;14.70;;;6.32;;
66384;SDS011;53426;55.872;37.462;2023-04-08T13:17:32;9.13;;;6.00;;
66384;SDS011;53426;55.872;37.462;2023-04-08T13:19:58;8.27;;;6.30;;
66384;SDS011;53426;55.872;37.462;2023-04-08T13:22:23;13.32;;;6.15;;
66384;SDS011;53426;55.872;37.462;2023-04-08T13:24:49;12.57;;;6.07;;
66384;SDS011;53426;55.872;37.462;2023-04-08T13:27:15;18.92;;;6.97;;
66384;SDS011;53426;55.872;37.462;2023-04-08T13:29:41;12.93;;;6.70;;
66384;SDS011;53426;55.872;37.462;2023-04-08T13:32:07;12.25;;;8.20;;
66384;SDS011;53426;55.872;37.462;2023-04-08T13:34:33;15.20;;;6.45;;
66384;SDS011;53426;55.872;37.462;2023-04-08T13:36:59;13.93;;;7.15;;
66384;SDS011;53426;55.872;37.462;2023-04-08T13:39:24;16.42;;;7.35;;
66384;SDS011;53426;55.872;37.462;2023-04-08T13:41:50;12.10;;;6.15;;
66384;SDS011;53426;55.872;37.462;2023-04-08T13:44:17;27.02;;;6.82;;
66384;SDS011;53426;55.872;37.462;2023-04-08T13:46:42;16.60;;;7.03;;
66384;SDS011;53426;55.872;37.462;2023-04-08T13:49:08;14.13;;;6.25;;
66384;SDS011;53426;55.872;37.462;2023-04-08T13:54:37;22.35;;;6.97;;
66384;SDS011;53426;55.872;37.462;2023-04-08T13:57:03;11.48;;;6.65;;
66384;SDS011;53426;55.872;37.462;2023-04-08T13:59:29;10.32;;;6.55;;
66384;SDS011;53426;55.872;37.462;2023-04-08T14:01:55;9.77;;;6.45;;
66384;SDS011;53426;55.872;37.462;2023-04-08T14:04:21;16.75;;;7.43;;
66384;SDS011;53426;55.872;37.462;2023-04-08T14:10:06;16.25;;;7.10;;
66384;SDS011;53426;55.872;37.462;2023-04-08T14:12:35;13.60;;;7.13;;
66384;SDS011;53426;55.872;37.462;2023-04-08T14:17:54;9.68;;;7.03;;
66384;SDS011;53426;55.872;37.462;2023-04-08T14:23:40;14.05;;;7.10;;
66384;SDS011;53426;55.872;37.462;2023-04-08T14:26:06;29.20;;;7.13;;
66384;SDS011;53426;55.872;37.462;2023-04-08T14:28:34;12.15;;;6.82;;
66384;SDS011;53426;55.872;37.462;2023-04-08T14:31:00;22.55;;;6.38;;
66384;SDS011;53426;55.872;37.462;2023-04-08T14:33:28;19.33;;;7.90;;
66384;SDS011;53426;55.872;37.462;2023-04-08T14:35:56;18.58;;;6.50;;
66384;SDS011;53426;55.872;37.462;2023-04-08T14:38:27;25.25;;;6.18;;
66384;SDS011;53426;55.872;37.462;2023-04-08T14:40:54;13.48;;;5.47;;
66384;SDS011;53426;55.872;37.462;2023-04-08T14:46:16;10.10;;;5.72;;
66384;SDS011;53426;55.872;37.462;2023-04-08T14:49:26;9.70;;;5.90;;
66384;SDS011;53426;55.872;37.462;2023-04-08T14:57:15;10.38;;;5.50;;
66384;SDS011;53426;55.872;37.462;2023-04-08T14:59:41;12.88;;;7.72;;
66384;SDS011;53426;55.872;37.462;2023-04-08T15:02:07;16.38;;;6.43;;
66384;SDS011;53426;55.872;37.462;2023-04-08T15:04:35;10.07;;;6.43;;
66384;SDS011;53426;55.872;37.462;2023-04-08T15:07:04;9.48;;;5.30;;
66384;SDS011;53426;55.872;37.462;2023-04-08T15:09:30;16.13;;;5.88;;
66384;SDS011;53426;55.872;37.462;2023-04-08T15:11:58;12.57;;;5.53;;
66384;SDS011;53426;55.872;37.462;2023-04-08T15:14:24;11.65;;;6.15;;
66384;SDS011;53426;55.872;37.462;2023-04-08T15:16:50;28.58;;;5.97;;
66384;SDS011;53426;55.872;37.462;2023-04-08T15:19:15;9.05;;;5.53;;
66384;SDS011;53426;55.872;37.462;2023-04-08T15:21:44;14.48;;;5.63;;
66384;SDS011;53426;55.872;37.462;2023-04-08T15:24:10;16.48;;;6.22;;
66384;SDS011;53426;55.872;37.462;2023-04-08T15:26:35;10.57;;;5.43;;
66384;SDS011;53426;55.872;37.462;2023-04-08T15:29:01;14.35;;;5.57;;
66384;SDS011;53426;55.872;37.462;2023-04-08T15:31:28;13.82;;;5.78;;
66384;SDS011;53426;55.872;37.462;2023-04-08T15:33:55;14.50;;;5.28;;
66384;SDS011;53426;55.872;37.462;2023-04-08T15:36:22;13.48;;;5.63;;
66384;SDS011;53426;55.872;37.462;2023-04-08T15:38:49;14.27;;;5.85;;
66384;SDS011;53426;55.872;37.462;2023-04-08T15:41:16;11.88;;;5.95;;
66384;SDS011;53426;55.872;37.462;2023-04-08T15:43:43;12.98;;;5.53;;
66384;SDS011;53426;55.872;37.462;2023-04-08T15:46:09;11.27;;;6.38;;
66384;SDS011;53426;55.872;37.462;2023-04-08T15:48:35;16.17;;;8.43;;
66384;SDS011;53426;55.872;37.462;2023-04-08T15:51:06;11.25;;;5.88;;
66384;SDS011;53426;55.872;37.462;2023-04-08T15:56:03;14.15;;;5.72;;
66384;SDS011;53426;55.872;37.462;2023-04-08T15:58:38;6.93;;;5.22;;
66384;SDS011;53426;55.872;37.462;2023-04-08T16:01:04;12.10;;;5.53;;
66384;SDS011;53426;55.872;37.462;2023-04-08T16:03:30;15.02;;;5.65;;
66384;SDS011;53426;55.872;37.462;2023-04-08T16:05:56;16.92;;;6.13;;
66384;SDS011;53426;55.872;37.462;2023-04-08T16:08:22;11.75;;;5.97;;
66384;SDS011;53426;55.872;37.462;2023-04-08T16:10:49;16.05;;;6.47;;
66384;SDS011;53426;55.872;37.462;2023-04-08T16:13:15;13.25;;;5.47;;